Time;durP1;ratioP1;P1;durP2;ratioP2;P2;SDS_P1;SDS_P2;PMS_P1;PMS_P2;Temp;Humidity;BMP_temperature;BMP_pressure;BME280_temperature;BME280_humidity;BME280_pressure;Samples;Min_cycle;Max_cycle;Signal;HPM_P1;HPM_P2
2023/06/07 00:02:14;;;;;;;6.45;3.53;;;;;;;22.57;44.28;101947.81;5011415;28;20033;-67
2023/06/07 00:04:39;;;;;;;6.45;3.55;;;;;;;22.58;44.03;101946.00;5011212;28;20136;-67
2023/06/07 00:07:05;;;;;;;6.72;3.60;;;;;;;22.57;44.30;101942.50;5011125;28;20147;-67
2023/06/07 00:09:31;;;;;;;6.57;3.83;;;;;;;22.57;44.10;101946.97;5011365;28;20034;-67
2023/06/07 00:11:56;;;;;;;7.47;3.65;;;;;;;22.57;44.19;101944.31;5011525;28;20038;-67
2023/06/07 00:14:22;;;;;;;6.88;3.55;;;;;;;22.56;43.93;101948.78;5011122;28;20440;-67
2023/06/07 00:16:50;;;;;;;5.85;3.50;;;;;;;22.54;44.14;101949.88;5011147;28;20791;-67
2023/06/07 00:19:20;;;;;;;6.10;3.70;;;;;;;22.57;43.67;101949.63;5011392;28;20033;-67
2023/06/07 00:21:46;;;;;;;7.68;3.75;;;;;;;22.57;43.77;101946.97;5011031;28;20053;-68
2023/06/07 00:24:11;;;;;;;6.88;3.75;;;;;;;22.55;43.97;101947.09;5011506;28;20108;-67
2023/06/07 00:26:36;;;;;;;6.73;3.70;;;;;;;22.56;43.70;101961.22;5011055;28;20474;-68
2023/06/07 00:29:02;;;;;;;5.93;3.40;;;;;;;22.55;44.12;101959.53;5011399;28;20278;-68
2023/06/07 00:31:27;;;;;;;7.47;3.57;;;;;;;22.54;43.86;101945.41;5011565;28;20302;-68
2023/06/07 00:33:52;;;;;;;6.43;3.20;;;;;;;22.53;43.91;101949.03;5010590;28;20286;-67
2023/06/07 00:36:18;;;;;;;5.90;3.47;;;;;;;22.55;44.04;101956.88;5011075;28;20044;-68
2023/06/07 00:38:43;;;;;;;6.37;3.80;;;;;;;22.53;43.94;101954.34;5010688;28;20037;-67
2023/06/07 00:41:08;;;;;;;6.60;3.57;;;;;;;22.54;43.60;101957.84;5010839;28;20271;-67
2023/06/07 00:43:33;;;;;;;7.07;3.60;;;;;;;22.53;43.59;101954.34;5010292;28;20742;-67
2023/06/07 00:45:59;;;;;;;7.70;3.80;;;;;;;22.54;44.19;101947.22;5011167;28;20393;-68
2023/06/07 00:48:26;;;;;;;6.13;3.70;;;;;;;22.52;43.55;101944.69;5011167;28;20270;-67
2023/06/07 00:50:51;;;;;;;5.82;3.20;;;;;;;22.53;43.59;101948.19;5011300;28;20033;-67
2023/06/07 00:53:17;;;;;;;7.47;3.50;;;;;;;22.51;43.48;101943.03;5010592;28;20033;-68
2023/06/07 00:55:42;;;;;;;6.47;4.13;;;;;;;22.49;43.39;101942.28;5017536;28;20156;-68
2023/06/07 00:58:08;;;;;;;7.20;3.53;;;;;;;22.50;43.62;101937.84;5010762;28;20083;-67
2023/06/07 01:00:33;;;;;;;6.72;3.80;;;;;;;22.52;43.24;101946.50;5011067;28;20034;-67
2023/06/07 01:02:58;;;;;;;6.90;3.60;;;;;;;22.51;43.56;101940.38;5010800;28;20500;-68
2023/06/07 01:05:24;;;;;;;6.55;3.80;;;;;;;22.51;43.38;101944.81;5010602;28;20481;-68
2023/06/07 01:07:49;;;;;;;5.85;3.63;;;;;;;22.51;43.66;101942.16;5011055;28;20987;-68
2023/06/07 01:10:16;;;;;;;6.43;3.70;;;;;;;22.50;43.24;101941.31;5010413;28;20037;-66
2023/06/07 01:12:47;;;;;;;6.60;3.30;;;;;;;22.48;43.32;101948.59;5010458;28;20033;-68
2023/06/07 01:15:13;;;;;;;6.45;3.90;;;;;;;22.50;43.77;101949.28;5012608;28;20154;-68
2023/06/07 01:17:44;;;;;;;8.32;3.90;;;;;;;22.46;43.44;101943.41;5014974;28;20072;-67
2023/06/07 01:20:20;;;;;;;7.15;3.78;;;;;;;22.47;43.64;101946.88;5014719;28;20129;-67
2023/06/07 01:22:48;;;;;;;7.03;4.10;;;;;;;22.48;43.56;101940.63;5014482;28;20088;-68
2023/06/07 01:25:13;;;;;;;6.75;3.85;;;;;;;22.49;43.38;101939.63;5013684;28;20423;-68
2023/06/07 01:27:43;;;;;;;5.95;3.83;;;;;;;22.49;43.45;101941.44;5014479;28;20121;-68
2023/06/07 01:30:11;;;;;;;6.80;3.72;;;;;;;22.46;43.45;101929.25;5014737;28;20033;-67
2023/06/07 01:32:38;;;;;;;6.65;4.13;;;;;;;22.49;43.26;101930.81;5013795;28;20026;-67
2023/06/07 01:35:04;;;;;;;6.25;3.85;;;;;;;22.48;43.44;101929.13;5013630;28;20048;-66
2023/06/07 01:37:31;;;;;;;6.47;3.80;;;;;;;22.46;43.23;101930.13;5014055;28;20038;-68
2023/06/07 01:39:57;;;;;;;7.75;4.53;;;;;;;22.46;43.33;101932.78;5013661;28;20033;-68
2023/06/07 01:42:23;;;;;;;6.68;3.67;;;;;;;22.45;43.42;101923.09;5014431;28;20161;-66
2023/06/07 01:44:51;;;;;;;6.22;3.97;;;;;;;22.44;43.48;101929.38;5013957;28;20034;-66
2023/06/07 01:47:17;;;;;;;9.00;3.90;;;;;;;22.44;43.14;101926.72;5014324;28;20463;-67
2023/06/07 01:49:42;;;;;;;7.03;3.25;;;;;;;22.45;43.50;101924.94;5013443;28;20041;-66
2023/06/07 01:52:07;;;;;;;6.38;3.55;;;;;;;22.46;43.45;101922.16;5013921;28;20034;-66
2023/06/07 01:54:34;;;;;;;6.40;3.83;;;;;;;22.43;43.28;101917.09;5013798;28;20029;-67
2023/06/07 01:57:13;;;;;;;6.05;3.97;;;;;;;22.46;43.40;101919.50;5014004;28;20025;-67
2023/06/07 02:00:09;;;;;;;8.77;4.15;;;;;;;22.43;43.54;101924.19;5013467;28;20038;-68
2023/06/07 02:02:55;;;;;;;5.78;3.45;;;;;;;22.43;43.28;101914.44;5013124;28;20037;-68
2023/06/07 02:05:36;;;;;;;6.13;4.10;;;;;;;22.44;43.02;101925.88;5013602;28;20033;-68
2023/06/07 02:08:08;;;;;;;7.40;3.80;;;;;;;22.43;43.09;101918.88;5012466;28;20026;-67
2023/06/07 02:10:36;;;;;;;6.80;3.75;;;;;;;22.41;43.02;101916.38;5014192;28;20033;-68
2023/06/07 02:13:02;;;;;;;8.20;4.22;;;;;;;22.44;43.41;101918.75;5012761;28;20021;-66
2023/06/07 02:15:28;;;;;;;6.75;3.85;;;;;;;22.43;43.18;101917.09;5013393;28;20095;-66
2023/06/07 02:17:57;;;;;;;6.72;3.70;;;;;;;22.42;42.93;101917.22;5012538;28;20034;-67
2023/06/07 02:20:27;;;;;;;7.22;3.83;;;;;;;22.43;43.08;101925.06;5013356;28;20117;-67
2023/06/07 02:22:54;;;;;;;6.63;3.60;;;;;;;22.42;43.03;101923.34;5012943;28;20034;-68
2023/06/07 02:25:19;;;;;;;6.28;3.60;;;;;;;22.41;42.92;101919.03;5011209;28;20410;-68
2023/06/07 02:27:44;;;;;;;6.43;3.88;;;;;;;22.41;42.76;101916.38;5013305;28;20045;-67
2023/06/07 02:30:10;;;;;;;5.85;4.20;;;;;;;22.42;42.94;101926.00;5011934;28;20041;-68
2023/06/07 02:32:36;;;;;;;7.45;4.03;;;;;;;22.40;43.22;101927.97;5012038;28;20080;-68
2023/06/07 02:35:02;;;;;;;7.47;3.97;;;;;;;22.41;42.90;101929.66;5012816;28;20083;-67
2023/06/07 02:37:28;;;;;;;7.03;3.80;;;;;;;22.39;43.05;101920.13;5012542;28;20029;-68
2023/06/07 02:39:53;;;;;;;7.20;3.58;;;;;;;22.39;43.16;101923.63;5011955;28;20041;-68
2023/06/07 02:42:19;;;;;;;7.80;4.00;;;;;;;22.35;43.27;101916.88;5011721;28;20033;-68
2023/06/07 02:44:44;;;;;;;7.28;3.83;;;;;;;22.40;42.79;101916.50;5012778;28;20029;-68
2023/06/07 02:47:10;;;;;;;6.80;4.10;;;;;;;22.41;42.60;101921.69;5011964;28;20041;-67
2023/06/07 02:49:35;;;;;;;8.05;4.10;;;;;;;22.38;42.79;101913.13;5011939;28;20334;-67
2023/06/07 02:52:00;;;;;;;7.68;3.72;;;;;;;22.37;42.89;101914.94;5012220;28;20124;-67
2023/06/07 02:54:26;;;;;;;6.50;3.60;;;;;;;22.40;42.94;101920.00;5012760;28;20037;-66
2023/06/07 02:56:51;;;;;;;6.27;4.23;;;;;;;22.37;42.85;101917.59;5011783;28;20025;-68
2023/06/07 02:59:17;;;;;;;6.00;3.63;;;;;;;22.37;42.90;101912.28;5012406;28;20642;-67
2023/06/07 03:01:43;;;;;;;8.07;4.20;;;;;;;22.37;42.92;101917.59;5012321;28;20108;-68
2023/06/07 03:04:08;;;;;;;6.40;3.80;;;;;;;22.37;43.24;101922.06;5011567;28;20528;-67
2023/06/07 03:06:34;;;;;;;7.27;3.90;;;;;;;22.37;42.76;101922.91;5013431;28;20069;-67
2023/06/07 03:09:00;;;;;;;6.75;3.88;;;;;;;22.36;42.83;101921.22;5012100;28;20264;-67
2023/06/07 03:11:25;;;;;;;7.22;4.18;;;;;;;22.36;42.85;101925.69;5012650;28;20037;-68
2023/06/07 03:13:50;;;;;;;7.13;3.67;;;;;;;22.36;42.42;101925.69;5012039;28;20655;-68
2023/06/07 03:16:16;;;;;;;8.53;4.33;;;;;;;22.36;42.96;101926.53;5011315;28;20382;-68
2023/06/07 03:18:41;;;;;;;7.38;4.20;;;;;;;22.35;42.88;101929.31;5013318;28;20345;-68
2023/06/07 03:21:07;;;;;;;7.10;3.93;;;;;;;22.36;42.48;101928.34;5012758;28;20076;-67
2023/06/07 03:23:33;;;;;;;6.65;3.80;;;;;;;22.37;42.86;101930.88;5012462;28;20299;-67
2023/06/07 03:25:58;;;;;;;8.25;4.03;;;;;;;22.36;42.55;101928.34;5011938;28;20073;-69
2023/06/07 03:28:24;;;;;;;7.35;4.30;;;;;;;22.34;42.93;101928.47;5012498;28;20025;-68
2023/06/07 03:30:49;;;;;;;8.50;3.80;;;;;;;22.35;43.22;101932.81;5026606;28;20749;-68
2023/06/07 03:33:14;;;;;;;6.77;4.30;;;;;;;22.33;42.85;101924.13;5010624;28;20037;-68
2023/06/07 03:35:40;;;;;;;6.80;4.47;;;;;;;22.33;42.62;101924.13;5012146;28;20297;-68
2023/06/07 03:38:06;;;;;;;7.60;4.00;;;;;;;22.33;42.65;101928.59;5010933;28;20267;-68
2023/06/07 03:40:32;;;;;;;7.95;4.05;;;;;;;22.35;42.59;101929.31;5011473;28;20044;-67
2023/06/07 03:42:59;;;;;;;9.27;4.07;;;;;;;22.32;42.74;101930.41;5011990;28;20026;-68
2023/06/07 03:45:24;;;;;;;8.52;4.28;;;;;;;22.29;42.54;101925.31;5011905;28;20354;-68
2023/06/07 03:47:50;;;;;;;8.20;4.03;;;;;;;22.34;42.68;101928.47;5002555;28;20041;-68
2023/06/07 03:50:15;;;;;;;9.60;4.10;;;;;;;22.34;42.72;101933.78;5011519;28;20116;-68
2023/06/07 03:52:40;;;;;;;6.00;3.88;;;;;;;22.31;42.44;101926.06;5011574;28;20466;-68
2023/06/07 03:55:07;;;;;;;6.93;3.72;;;;;;;22.32;42.45;101938.38;5010767;28;20037;-67
2023/06/07 03:57:32;;;;;;;6.78;4.20;;;;;;;22.32;42.68;101932.22;5011207;28;20045;-67
2023/06/07 04:00:00;;;;;;;6.90;4.18;;;;;;;22.31;42.79;101936.69;5011587;28;20030;-67
2023/06/07 04:02:27;;;;;;;5.82;3.90;;;;;;;22.32;42.46;101934.84;5011071;28;20072;-68
2023/06/07 04:04:54;;;;;;;9.15;4.22;;;;;;;22.29;42.64;101927.97;5011365;28;20065;-67
2023/06/07 04:07:19;;;;;;;8.18;4.32;;;;;;;22.32;42.42;101927.75;5011458;28;20034;-68
2023/06/07 04:09:45;;;;;;;8.98;3.85;;;;;;;22.29;42.21;101935.94;5011116;28;20045;-69
2023/06/07 04:12:10;;;;;;;7.45;3.92;;;;;;;22.30;42.88;101939.47;5011173;28;20034;-68
2023/06/07 04:14:36;;;;;;;7.40;3.85;;;;;;;22.30;42.17;101934.97;5010904;28;20441;-68
2023/06/07 04:17:01;;;;;;;7.28;3.63;;;;;;;22.30;42.57;101940.28;5011638;28;20029;-68
2023/06/07 04:19:26;;;;;;;8.00;3.70;;;;;;;22.31;42.56;101935.84;5011320;28;20465;-67
2023/06/07 04:21:52;;;;;;;9.20;4.03;;;;;;;22.28;42.29;101929.78;5011008;28;20026;-67
2023/06/07 04:24:18;;;;;;;6.47;3.60;;;;;;;22.29;42.22;101941.25;5011517;28;20251;-68
2023/06/07 04:26:44;;;;;;;7.45;3.88;;;;;;;22.29;42.58;101933.28;5011100;28;20069;-67
2023/06/07 04:29:10;;;;;;;7.22;3.70;;;;;;;22.26;42.58;101931.72;5011489;28;20076;-67
2023/06/07 04:31:39;;;;;;;7.22;3.72;;;;;;;22.24;42.36;101922.22;5011648;28;20052;-67
2023/06/07 04:34:04;;;;;;;7.30;4.00;;;;;;;22.28;42.64;101932.44;5011051;28;20033;-67
2023/06/07 04:36:30;;;;;;;8.70;4.38;;;;;;;22.27;42.17;101930.75;5011459;28;20038;-67
2023/06/07 04:39:01;;;;;;;6.20;3.55;;;;;;;22.27;42.05;101924.59;5011510;28;20083;-67
2023/06/07 04:41:32;;;;;;;6.00;3.78;;;;;;;22.26;42.52;101929.06;5011429;28;20041;-67
2023/06/07 04:44:00;;;;;;;7.18;3.92;;;;;;;22.26;42.28;101931.72;5010284;28;20466;-66
2023/06/07 04:46:26;;;;;;;6.50;3.60;;;;;;;22.27;42.49;101930.75;5011573;28;20033;-67
2023/06/07 04:48:52;;;;;;;8.98;4.00;;;;;;;22.26;42.54;101929.06;5013115;28;20824;-67
2023/06/07 04:51:20;;;;;;;6.07;3.63;;;;;;;22.26;42.50;101945.00;5014588;28;20033;-68
2023/06/07 04:53:46;;;;;;;5.53;3.55;;;;;;;22.25;42.31;101953.09;5015264;28;20037;-66
2023/06/07 04:56:12;;;;;;;6.03;3.58;;;;;;;22.21;42.35;101938.38;5014684;28;20056;-67
2023/06/07 04:58:40;;;;;;;8.05;3.90;;;;;;;22.25;42.14;101934.50;5015003;28;20025;-67
2023/06/07 05:01:09;;;;;;;7.03;3.80;;;;;;;22.26;42.33;101944.16;5014453;28;20040;-67
2023/06/07 05:03:38;;;;;;;7.53;3.70;;;;;;;22.24;42.30;101943.44;5014265;28;20033;-67
2023/06/07 05:06:04;;;;;;;6.55;3.75;;;;;;;22.23;42.15;101942.59;5015160;28;20034;-67
2023/06/07 05:08:30;;;;;;;7.60;3.67;;;;;;;22.25;42.31;101943.28;5014696;28;20091;-67
2023/06/07 05:10:55;;;;;;;6.45;3.55;;;;;;;22.24;42.34;101946.94;5014538;28;20499;-66
2023/06/07 05:13:20;;;;;;;7.28;3.55;;;;;;;22.25;42.18;101950.44;5013473;28;20104;-67
2023/06/07 05:15:45;;;;;;;6.20;3.90;;;;;;;22.24;42.01;101941.63;5014316;28;20045;-66
2023/06/07 05:18:12;;;;;;;5.83;3.90;;;;;;;22.24;42.14;101943.44;5015110;28;20309;-66
2023/06/07 05:20:37;;;;;;;8.80;3.80;;;;;;;22.24;42.13;101951.41;5014593;28;20289;-66
2023/06/07 05:23:03;;;;;;;8.27;3.85;;;;;;;22.24;42.06;101949.59;5014097;28;20030;-67
2023/06/07 05:25:29;;;;;;;7.05;3.95;;;;;;;22.25;42.29;101956.56;5014002;28;20537;-67
2023/06/07 05:27:54;;;;;;;8.00;3.42;;;;;;;22.23;42.39;101955.84;5013630;28;20256;-68
2023/06/07 05:30:19;;;;;;;6.55;3.80;;;;;;;22.23;42.25;101952.38;5014624;28;20037;-67
2023/06/07 05:32:45;;;;;;;7.57;3.85;;;;;;;22.23;42.06;101947.06;5014146;28;20041;-67
2023/06/07 05:35:10;;;;;;;7.07;3.88;;;;;;;22.23;42.04;101955.03;5014442;28;20037;-66
2023/06/07 05:37:36;;;;;;;8.15;3.67;;;;;;;22.23;42.35;101963.00;5013728;28;20123;-68
2023/06/07 05:40:04;;;;;;;6.53;3.28;;;;;;;22.22;42.27;101948.88;5013770;28;20025;-67
2023/06/07 05:42:30;;;;;;;6.90;3.60;;;;;;;22.24;41.92;101964.69;5013836;28;20077;-67
2023/06/07 05:44:55;;;;;;;7.68;3.90;;;;;;;22.21;42.41;101963.13;5011883;28;20084;-68
2023/06/07 05:47:25;;;;;;;6.47;3.63;;;;;;;22.22;42.17;101961.28;5014039;28;20030;-68
2023/06/07 05:49:50;;;;;;;6.88;3.90;;;;;;;22.23;42.24;101965.66;5014251;28;20037;-68
2023/06/07 05:52:15;;;;;;;6.60;3.60;;;;;;;22.20;41.88;101960.59;5013123;28;20056;-68
2023/06/07 05:54:48;;;;;;;6.78;3.67;;;;;;;22.19;42.43;101970.38;5013493;28;20040;-66
2023/06/07 05:57:14;;;;;;;7.27;3.73;;;;;;;22.22;42.19;101963.94;5012266;28;20030;-68
2023/06/07 05:59:39;;;;;;;7.80;3.70;;;;;;;22.22;42.27;101963.94;5012736;28;20135;-67
2023/06/07 06:02:06;;;;;;;7.20;3.60;;;;;;;22.25;42.39;101971.66;5013529;28;20290;-67
2023/06/07 06:04:31;;;;;;;7.57;3.80;;;;;;;22.25;42.36;101971.66;5012890;28;20095;-67
2023/06/07 06:06:56;;;;;;;7.73;3.97;;;;;;;22.25;42.45;101969.84;5013429;28;20802;-67
2023/06/07 06:09:22;;;;;;;6.53;3.72;;;;;;;22.28;42.45;101976.72;5013722;28;20285;-68
2023/06/07 06:11:49;;;;;;;8.43;3.85;;;;;;;22.25;42.56;101969.84;5013579;28;20034;-67
2023/06/07 06:14:14;;;;;;;7.40;3.50;;;;;;;22.26;42.59;101976.84;5013551;28;20045;-67
2023/06/07 06:16:39;;;;;;;8.13;3.75;;;;;;;22.23;42.67;101974.44;5012957;28;20037;-66
2023/06/07 06:19:05;;;;;;;7.33;3.80;;;;;;;22.25;42.54;101974.31;5013345;28;20103;-67
2023/06/07 06:21:30;;;;;;;5.83;3.60;;;;;;;22.25;42.75;101971.66;5013145;28;20263;-68
2023/06/07 06:23:55;;;;;;;6.13;3.28;;;;;;;22.25;42.44;101975.16;5011554;28;20281;-67
2023/06/07 06:26:21;;;;;;;5.97;3.33;;;;;;;22.24;42.59;101975.31;5013386;28;20087;-67
2023/06/07 06:28:47;;;;;;;7.85;3.70;;;;;;;22.19;42.88;101977.47;5019832;28;20474;-67
2023/06/07 06:31:12;;;;;;;6.38;3.65;;;;;;;22.15;43.01;101976.06;5013285;28;20103;-65
2023/06/07 06:33:37;;;;;;;8.38;3.40;;;;;;;22.20;42.97;101980.00;5012714;28;20120;-67
2023/06/07 06:36:03;;;;;;;6.72;3.60;;;;;;;22.20;43.31;101990.63;5013371;28;20034;-66
2023/06/07 06:38:28;;;;;;;8.57;3.58;;;;;;;22.23;42.55;101990.38;5013262;28;20034;-67
2023/06/07 06:40:53;;;;;;;9.13;3.95;;;;;;;22.25;43.11;101992.91;5012838;28;20029;-66
2023/06/07 06:43:19;;;;;;;6.93;3.40;;;;;;;22.26;42.78;101994.59;5012689;28;20033;-67
2023/06/07 06:45:44;;;;;;;16.33;4.27;;;;;;;22.26;42.79;102000.75;5012614;28;20638;-68
2023/06/07 06:48:10;;;;;;;8.95;3.33;;;;;;;22.25;42.92;101992.91;5012456;28;20309;-66
2023/06/07 06:50:35;;;;;;;8.98;3.72;;;;;;;22.24;42.78;101988.59;5013051;28;20037;-67
2023/06/07 06:53:01;;;;;;;7.00;3.65;;;;;;;22.24;42.77;101989.41;5012473;28;20091;-65
2023/06/07 06:55:26;;;;;;;9.25;3.88;;;;;;;22.24;42.80;102000.03;5012303;28;20040;-68
2023/06/07 06:57:52;;;;;;;9.90;4.68;;;;;;;22.21;42.92;101996.81;5012708;28;20025;-66
2023/06/07 07:00:17;;;;;;;10.35;4.55;;;;;;;22.19;43.60;101996.06;5013664;28;20029;-66
2023/06/07 07:02:43;;;;;;;14.05;5.47;;;;;;;22.14;45.53;102007.03;5012726;28;20607;-67
2023/06/07 07:05:09;;;;;;;13.60;5.43;;;;;;;22.14;46.87;102008.88;5012521;28;20104;-68
2023/06/07 07:07:34;;;;;;;9.82;4.90;;;;;;;22.12;47.18;102013.47;5011120;28;20040;-68
2023/06/07 07:10:00;;;;;;;12.10;5.03;;;;;;;22.11;47.15;102015.25;5013272;28;20401;-66
2023/06/07 07:12:26;;;;;;;17.80;4.88;;;;;;;22.12;47.38;102016.94;5012486;28;20462;-67
2023/06/07 07:14:51;;;;;;;10.95;4.80;;;;;;;22.12;47.20;102016.94;5014993;28;20061;-67
2023/06/07 07:17:17;;;;;;;9.63;4.45;;;;;;;22.17;47.04;102013.94;5012640;28;20025;-67
2023/06/07 07:19:42;;;;;;;8.88;4.47;;;;;;;22.18;47.04;102010.31;5011714;28;20084;-67
2023/06/07 07:22:08;;;;;;;11.07;4.47;;;;;;;22.25;46.71;102011.50;5010163;28;20034;-67
2023/06/07 07:24:36;;;;;;;17.20;5.43;;;;;;;22.29;46.68;102012.94;5011388;28;20446;-66
2023/06/07 07:27:01;;;;;;;10.00;4.00;;;;;;;22.30;46.35;102014.66;5011340;28;20033;-69
2023/06/07 07:29:26;;;;;;;8.48;4.10;;;;;;;22.34;46.27;102009.97;5011695;28;20030;-68
2023/06/07 07:31:52;;;;;;;11.57;4.05;;;;;;;22.34;46.00;102021.41;5014107;28;20037;-69
2023/06/07 07:34:18;;;;;;;9.20;4.07;;;;;;;22.31;46.21;102018.16;5012146;28;20045;-68
2023/06/07 07:36:44;;;;;;;7.65;4.05;;;;;;;22.33;46.26;102022.38;5011331;28;20855;-69
2023/06/07 07:39:11;;;;;;;13.00;4.60;;;;;;;22.35;45.99;102016.94;5011181;28;20493;-68
2023/06/07 07:41:37;;;;;;;10.10;4.15;;;;;;;22.37;45.97;102012.38;5012254;28;20030;-71
2023/06/07 07:44:03;;;;;;;8.60;4.30;;;;;;;22.43;45.71;102007.41;5012177;28;20048;-69
2023/06/07 07:46:28;;;;;;;9.00;3.80;;;;;;;22.44;45.61;102014.38;5012381;28;20033;-66
2023/06/07 07:48:53;;;;;;;11.20;4.67;;;;;;;22.48;45.40;102014.13;5011812;28;20451;-68
2023/06/07 07:51:19;;;;;;;8.98;4.20;;;;;;;22.50;45.53;102025.50;5011852;28;20263;-69
2023/06/07 07:53:45;;;;;;;10.88;3.92;;;;;;;22.50;45.19;102022.84;5011741;28;20034;-69
2023/06/07 07:56:10;;;;;;;13.20;4.45;;;;;;;22.50;44.95;102028.16;5011560;28;20533;-69
2023/06/07 07:58:36;;;;;;;9.40;3.95;;;;;;;22.51;44.74;102029.81;5011958;28;20739;-68
2023/06/07 08:01:02;;;;;;;10.23;4.18;;;;;;;22.51;44.65;102035.13;5011494;28;20120;-68
2023/06/07 08:03:28;;;;;;;9.60;4.00;;;;;;;22.50;44.96;102025.50;5011440;28;20132;-69
2023/06/07 08:05:53;;;;;;;8.30;4.00;;;;;;;22.49;44.64;102027.28;5011302;28;20124;-68
2023/06/07 08:08:19;;;;;;;8.95;4.05;;;;;;;22.49;44.80;102027.28;5011524;28;20437;-68
2023/06/07 08:10:46;;;;;;;9.55;3.83;;;;;;;22.50;44.79;102028.16;5011948;28;20033;-69
2023/06/07 08:13:11;;;;;;;12.07;4.05;;;;;;;22.50;44.65;102026.31;5010699;28;20033;-68
2023/06/07 08:15:37;;;;;;;8.38;3.88;;;;;;;22.48;44.38;102022.09;5011083;28;20555;-68
2023/06/07 08:18:02;;;;;;;8.32;3.83;;;;;;;22.48;44.72;102025.63;5011252;28;20040;-68
2023/06/07 08:20:27;;;;;;;14.02;4.22;;;;;;;22.45;44.81;102024.03;5011487;28;20033;-68
2023/06/07 08:22:53;;;;;;;8.97;3.77;;;;;;;22.42;44.80;102012.81;5010947;28;20029;-68
2023/06/07 08:25:18;;;;;;;6.57;3.60;;;;;;;22.39;44.66;102013.06;5011219;28;20285;-68
2023/06/07 08:27:45;;;;;;;9.82;4.47;;;;;;;22.39;44.73;102018.38;5011534;28;20392;-69
2023/06/07 08:30:11;;;;;;;7.00;3.80;;;;;;;22.35;44.83;102020.47;5011109;28;20537;-69
2023/06/07 08:32:37;;;;;;;11.10;3.58;;;;;;;22.35;44.96;102019.59;5010183;28;20079;-69
2023/06/07 08:35:03;;;;;;;8.75;4.35;;;;;;;22.37;45.01;102017.69;5011240;28;20034;-69
2023/06/07 08:37:28;;;;;;;7.75;3.60;;;;;;;22.36;44.81;102016.81;5010851;28;20030;-68
2023/06/07 08:39:53;;;;;;;7.65;3.72;;;;;;;22.36;44.55;102010.66;5010501;28;20046;-68
2023/06/07 08:42:19;;;;;;;6.63;3.53;;;;;;;22.39;44.52;102007.75;5010831;28;20038;-68
2023/06/07 08:44:45;;;;;;;7.07;3.72;;;;;;;22.37;44.63;102007.88;5011402;28;20048;-69
2023/06/07 08:47:14;;;;;;;7.70;3.60;;;;;;;22.38;44.43;102014.03;5011653;28;21128;-68
2023/06/07 08:49:42;;;;;;;8.35;3.45;;;;;;;22.36;45.10;102018.63;5011093;28;20069;-68
2023/06/07 08:52:09;;;;;;;6.88;3.67;;;;;;;22.32;45.02;102009.22;5011386;28;20025;-67
2023/06/07 08:54:40;;;;;;;7.25;3.60;;;;;;;22.27;44.69;102010.41;5011033;28;20045;-69
2023/06/07 08:57:05;;;;;;;7.28;3.78;;;;;;;22.29;45.11;102012.94;5011458;28;20044;-69
2023/06/07 08:59:32;;;;;;;8.70;3.58;;;;;;;22.32;44.86;102007.44;5010985;28;20038;-69
2023/06/07 09:01:57;;;;;;;7.20;3.40;;;;;;;22.27;45.09;102010.41;5010974;28;20116;-69
2023/06/07 09:04:23;;;;;;;7.03;3.55;;;;;;;22.32;45.04;102011.88;5011099;28;20125;-68
2023/06/07 09:06:48;;;;;;;5.75;3.20;;;;;;;22.28;44.88;102005.94;5011094;28;20030;-68
2023/06/07 09:09:14;;;;;;;8.05;3.90;;;;;;;22.31;44.98;102013.69;5010843;28;20455;-68
2023/06/07 09:11:39;;;;;;;8.88;3.95;;;;;;;22.30;44.92;102009.34;5011219;28;20038;-68
2023/06/07 09:14:05;;;;;;;7.65;3.30;;;;;;;22.28;44.72;102011.25;5010400;28;20026;-69
2023/06/07 09:16:30;;;;;;;7.00;3.47;;;;;;;22.30;45.09;102014.66;5010417;28;20786;-68
2023/06/07 09:18:56;;;;;;;7.82;3.50;;;;;;;22.31;44.83;102020.81;5010864;28;20037;-68
2023/06/07 09:21:26;;;;;;;9.15;3.40;;;;;;;22.25;45.03;102012.34;5010378;28;20034;-68
2023/06/07 09:23:53;;;;;;;7.18;3.60;;;;;;;22.26;44.83;102010.53;5010494;28;20034;-69
2023/06/07 09:26:24;;;;;;;7.43;3.97;;;;;;;22.26;45.26;102010.53;5010567;28;20569;-71
2023/06/07 09:28:50;;;;;;;6.88;3.63;;;;;;;22.25;44.90;102006.19;5011175;28;20033;-70
2023/06/07 09:31:29;;;;;;;6.88;3.60;;;;;;;22.26;45.01;102008.72;5010265;28;20042;-69
2023/06/07 09:33:54;;;;;;;5.63;3.25;;;;;;;22.28;44.87;102020.06;5010512;28;20414;-69
2023/06/07 09:36:20;;;;;;;6.93;3.85;;;;;;;22.25;44.76;102007.03;5013856;28;20049;-69
2023/06/07 09:38:45;;;;;;;6.35;3.20;;;;;;;22.23;45.37;102008.97;5014415;28;20117;-70
2023/06/07 09:41:11;;;;;;;6.88;3.75;;;;;;;22.26;44.89;102005.22;5014646;28;20208;-68
2023/06/07 09:43:47;;;;;;;7.90;3.88;;;;;;;22.24;45.02;102001.88;5013363;28;20048;-69
2023/06/07 09:46:14;;;;;;;7.05;3.53;;;;;;;22.20;45.19;101995.94;5012923;28;20038;-69
2023/06/07 09:48:45;;;;;;;6.55;3.58;;;;;;;22.24;45.16;102002.69;5013945;28;20087;-69
2023/06/07 09:51:11;;;;;;;7.40;3.63;;;;;;;22.24;45.08;102002.69;5014182;28;20038;-69
2023/06/07 09:54:02;;;;;;;7.35;3.33;;;;;;;22.23;44.87;102002.81;5013732;28;20458;-67
2023/06/07 09:56:27;;;;;;;8.50;3.72;;;;;;;22.22;45.34;102004.66;5014248;28;20730;-69
2023/06/07 09:59:09;;;;;;;6.70;3.42;;;;;;;22.21;45.04;102010.06;5014079;28;20548;-67
2023/06/07 10:01:42;;;;;;;7.28;3.72;;;;;;;22.21;45.08;102010.91;5013794;28;20029;-69
2023/06/07 10:04:11;;;;;;;7.20;3.45;;;;;;;22.22;45.15;102011.75;5014348;28;20049;-69
2023/06/07 10:06:44;;;;;;;8.57;3.65;;;;;;;22.19;45.18;102001.38;5020690;28;20033;-69
2023/06/07 10:09:12;;;;;;;6.85;3.92;;;;;;;22.21;44.90;102015.38;5014081;28;20037;-71
2023/06/07 10:11:39;;;;;;;7.47;3.53;;;;;;;22.22;44.92;102017.06;5013324;28;20393;-68
2023/06/07 10:14:18;;;;;;;7.97;3.42;;;;;;;22.20;45.23;101997.75;5013433;28;20033;-69
2023/06/07 10:16:51;;;;;;;6.50;3.60;;;;;;;22.20;45.13;101998.59;5013791;28;20045;-67
2023/06/07 10:19:31;;;;;;;10.45;3.53;;;;;;;22.20;44.84;102001.25;5013756;28;20040;-70
2023/06/07 10:21:58;;;;;;;9.02;3.85;;;;;;;22.19;44.92;101999.56;5013477;28;20080;-69
2023/06/07 10:24:30;;;;;;;6.43;3.30;;;;;;;22.20;45.02;101997.75;5012680;28;20059;-67
2023/06/07 10:27:03;;;;;;;8.55;3.97;;;;;;;22.19;45.15;101998.72;5012912;28;20037;-68
2023/06/07 10:29:38;;;;;;;9.15;3.63;;;;;;;22.19;44.88;101999.56;5012895;28;20037;-68
2023/06/07 10:32:12;;;;;;;9.68;3.88;;;;;;;22.21;44.83;102005.59;5013640;28;20053;-68
2023/06/07 10:34:38;;;;;;;6.72;3.30;;;;;;;22.21;45.18;102005.59;5013161;28;21020;-66
2023/06/07 10:37:09;;;;;;;6.65;3.30;;;;;;;22.19;45.31;101994.28;5013406;28;20041;-66
2023/06/07 10:39:36;;;;;;;21.42;12.38;;;;;;;22.18;45.53;101997.03;5013264;28;20389;-69
2023/06/07 10:42:01;;;;;;;18.88;11.45;;;;;;;22.17;45.85;102001.50;5014297;28;20026;-67
2023/06/07 10:44:28;;;;;;;17.08;9.50;;;;;;;22.19;45.85;101998.72;5013774;28;20087;-67
2023/06/07 10:47:21;;;;;;;20.80;11.48;;;;;;;22.20;45.85;102003.91;5013003;28;20418;-67
2023/06/07 10:49:47;;;;;;;21.55;12.10;;;;;;;22.17;46.07;101988.22;5012891;28;20553;-68
2023/06/07 10:52:15;;;;;;;22.90;12.57;;;;;;;22.20;45.82;101997.75;5012417;28;20072;-67
2023/06/07 10:54:41;;;;;;;23.60;12.05;;;;;;;22.20;45.75;101995.09;5012453;28;20030;-69
2023/06/07 10:57:08;;;;;;;19.45;11.52;;;;;;;22.24;45.94;101996.56;5012126;28;20682;-71
2023/06/07 10:59:34;;;;;;;23.90;11.45;;;;;;;22.25;45.78;101992.91;5010625;28;20509;-68
2023/06/07 11:02:21;;;;;;;20.33;10.40;;;;;;;22.24;46.09;101994.72;5010822;28;20037;-65
2023/06/07 11:05:00;;;;;;;18.90;10.13;;;;;;;22.23;46.10;101993.03;5019117;28;20044;-67
2023/06/07 11:07:30;;;;;;;23.08;10.15;;;;;;;22.20;46.01;101987.13;5011898;28;20037;-68
2023/06/07 11:10:04;;;;;;;15.13;9.20;;;;;;;22.21;46.08;101987.00;5010539;28;20099;-67
2023/06/07 11:12:35;;;;;;;21.65;10.50;;;;;;;22.21;46.17;101991.50;5012150;28;20926;-68
2023/06/07 11:15:21;;;;;;;16.98;9.18;;;;;;;22.18;46.10;101989.91;5010903;28;20057;-67
2023/06/07 11:17:53;;;;;;;15.10;9.68;;;;;;;22.19;46.08;101990.75;5010809;28;20474;-68
2023/06/07 11:20:41;;;;;;;16.27;9.43;;;;;;;22.19;46.22;101988.97;5011825;28;20041;-68
2023/06/07 11:23:22;;;;;;;16.88;9.27;;;;;;;22.19;46.16;101988.09;5011574;28;20041;-67
2023/06/07 11:25:48;;;;;;;15.13;8.98;;;;;;;22.17;46.34;101976.75;5012581;28;20048;-68